Terminal Aerodrome Forecast
Issued by NWS

Home | Current Version | Previous Version | Text Only | Print | Product List | Glossary On
Versions: 1 2 3 4 5 6 7 8 9 10 11 12 13 14 15 16 17 18 19 20 21 22 23 24 25 26 27 28 29 30 31 32 33 34 35 36 37 38 39
000
FTUS44 KFWD 200300 AAB
TAFAFW
TAF AMD
KAFW 200307Z 2003/2024 01007KT P6SM -DZ OVC011
      TEMPO 2003/2006 5SM -DZ BR OVC009
     FM200600 03004KT 4SM BR OVC009
      TEMPO 2009/2013 2SM -DZ BR OVC006
     FM201700 11005KT P6SM OVC015
     FM202000 16007KT P6SM BKN025=

USA.gov is the U.S. government's official web portal to all federal, state and local government web resources and services.